createdAt,value
2022-10-07T00:00:53.879Z,99971.63
2022-10-07T00:01:56.576Z,99954.16
2022-10-07T00:02:58.304Z,99953.53
2022-10-07T00:04:00.005Z,100002.59
2022-10-07T00:05:01.702Z,99961.84
2022-10-07T00:06:13.384Z,99993.06
2022-10-07T00:07:15.159Z,99975.16
2022-10-07T00:08:16.900Z,99992.66
2022-10-07T00:09:18.582Z,99998.44
2022-10-07T00:10:20.268Z,99883.66
2022-10-07T00:11:25.109Z,100004.69
2022-10-07T00:12:27.134Z,99948.31
2022-10-07T00:13:28.842Z,99990.75
2022-10-07T00:14:30.546Z,99972.03
2022-10-07T00:15:32.278Z,99980.78
2022-10-07T00:16:37.176Z,99967.25
2022-10-07T00:17:39.139Z,99941.66
2022-10-07T00:18:41.878Z,100011.34
2022-10-07T00:19:43.567Z,100003.22
2022-10-07T00:20:45.324Z,100014.00
2022-10-07T00:21:47.287Z,99906.25
2022-10-07T00:22:49.044Z,100010.28
2022-10-07T00:23:51.325Z,99906.69
2022-10-07T00:24:53.082Z,99999.03
2022-10-07T00:25:54.775Z,99986.97
2022-10-07T00:26:56.499Z,99996.97
2022-10-07T00:27:59.180Z,99908.69
2022-10-07T00:29:01.751Z,99976.16
2022-10-07T00:30:03.746Z,99975.31
2022-10-07T00:31:09.021Z,100039.19
2022-10-07T00:32:10.980Z,99995.69
2022-10-07T00:33:12.662Z,99925.13
2022-10-07T00:34:14.576Z,99907.06
2022-10-07T00:35:19.248Z,100008.38
2022-10-07T00:36:26.150Z,99902.47
2022-10-07T00:37:28.540Z,99974.00
2022-10-07T00:38:30.271Z,99995.06
2022-10-07T00:39:32.019Z,99952.19
2022-10-07T00:40:35.024Z,100048.34
2022-10-07T00:41:39.966Z,100039.16
2022-10-07T00:42:42.922Z,100040.81
2022-10-07T00:43:44.820Z,99910.53
2022-10-07T00:44:48.612Z,100017.09
2022-10-07T00:45:51.431Z,99960.88
2022-10-07T00:46:55.401Z,100018.34
2022-10-07T00:47:57.174Z,100031.03
2022-10-07T00:49:03.113Z,100048.09
2022-10-07T00:50:10.906Z,100060.56
2022-10-07T00:51:17.201Z,100030.81
2022-10-07T00:52:21.824Z,100064.97
2022-10-07T00:53:27.902Z,99999.19
2022-10-07T00:54:29.815Z,100074.94
2022-10-07T00:55:32.484Z,100035.38
2022-10-07T00:56:35.101Z,99986.66
2022-10-07T00:57:37.723Z,100024.38
2022-10-07T00:58:42.261Z,100052.66
2022-10-07T00:59:44.112Z,100051.81
2022-10-07T01:00:46.625Z,100057.47
2022-10-07T01:01:48.340Z,99922.13
2022-10-07T01:02:50.704Z,100035.97
2022-10-07T01:03:53.533Z,100054.94
2022-10-07T01:04:59.074Z,100030.16
2022-10-07T01:06:00.928Z,100072.00
2022-10-07T01:07:02.861Z,100056.84
2022-10-07T01:08:04.917Z,100021.63
2022-10-07T01:09:08.862Z,100035.38
2022-10-07T01:10:12.086Z,100015.19
2022-10-07T01:11:39.420Z,100022.47
2022-10-07T01:12:57.477Z,100055.16
2022-10-07T01:14:29.574Z,100058.31
2022-10-07T01:16:23.858Z,100062.69
2022-10-07T01:17:32.910Z,100067.47
2022-10-07T01:18:43.626Z,100067.25
2022-10-07T01:20:27.081Z,100067.47
2022-10-07T01:21:31.560Z,100083.25
2022-10-07T01:22:57.969Z,100083.44
2022-10-07T01:24:38.859Z,100088.66
2022-10-07T01:25:49.617Z,100079.91
2022-10-07T01:26:57.891Z,100098.38
2022-10-07T01:28:09.684Z,100037.81
2022-10-07T01:29:13.192Z,100079.25
2022-10-07T01:30:15.281Z,100034.69
2022-10-07T01:31:22.950Z,100076.94
2022-10-07T01:32:36.861Z,100050.69
2022-10-07T01:33:41.651Z,99999.66
2022-10-07T01:34:46.628Z,99950.97
2022-10-07T01:35:51.919Z,100040.81
2022-10-07T01:36:58.288Z,100042.53
2022-10-07T01:38:05.986Z,100061.09
2022-10-07T01:39:14.268Z,100091.28
2022-10-07T01:40:21.763Z,100021.06
2022-10-07T01:41:24.366Z,100050.22
2022-10-07T01:42:28.095Z,99962.78
2022-10-07T01:43:32.217Z,100081.47
2022-10-07T01:44:34.664Z,100037.72
2022-10-07T01:45:41.414Z,100045.41
2022-10-07T01:46:43.578Z,99947.59
2022-10-07T01:47:46.159Z,100086.06
2022-10-07T01:48:48.322Z,100059.44
2022-10-07T01:49:51.536Z,100054.44
2022-10-07T01:50:54.253Z,100049.78
2022-10-07T01:52:14.141Z,100045.41
2022-10-07T01:53:22.580Z,100051.03
2022-10-07T01:54:44.452Z,100072.75
2022-10-07T01:56:24.421Z,100086.09
2022-10-07T01:57:52.928Z,100061.94
2022-10-07T01:59:12.047Z,100084.03
2022-10-07T02:00:15.285Z,100106.06
2022-10-07T02:01:22.949Z,100113.75
2022-10-07T02:02:48.078Z,100096.47
2022-10-07T02:03:50.713Z,100118.31
2022-10-07T02:05:09.070Z,100089.53
2022-10-07T02:06:15.708Z,100114.13
2022-10-07T02:07:21.086Z,100120.59
2022-10-07T02:08:30.586Z,100127.22
2022-10-07T02:09:46.004Z,100024.75
2022-10-07T02:11:14.047Z,100088.50
2022-10-07T02:12:25.704Z,100132.03
2022-10-07T02:14:04.111Z,100110.56
2022-10-07T02:15:16.896Z,100020.56
2022-10-07T02:16:25.733Z,100045.53
2022-10-07T02:17:34.242Z,100095.94
2022-10-07T02:18:39.729Z,100104.22
2022-10-07T02:19:46.281Z,100053.41
2022-10-07T02:20:52.091Z,100080.91
2022-10-07T02:21:58.383Z,100105.03
2022-10-07T02:23:02.627Z,100130.09
2022-10-07T02:24:05.492Z,100129.25
2022-10-07T02:25:10.023Z,100127.13
2022-10-07T02:26:15.528Z,100144.00
2022-10-07T02:27:23.560Z,100141.06
2022-10-07T02:28:28.855Z,100022.69
2022-10-07T02:29:37.048Z,100138.78
2022-10-07T02:30:40.407Z,100110.81
2022-10-07T02:31:45.093Z,100152.72
2022-10-07T02:32:57.049Z,100111.66
2022-10-07T02:34:01.939Z,100126.41
2022-10-07T02:35:13.301Z,100133.91
2022-10-07T02:36:22.374Z,100065.41
2022-10-07T02:37:29.915Z,100004.50
2022-10-07T02:38:31.816Z,100071.22
2022-10-07T02:39:34.177Z,100011.81
2022-10-07T02:40:41.723Z,100142.22
2022-10-07T02:41:50.367Z,100171.63
2022-10-07T02:43:11.210Z,100119.91
2022-10-07T02:44:34.203Z,100173.94
2022-10-07T02:45:48.989Z,100177.91
2022-10-07T02:46:56.866Z,100168.31
2022-10-07T02:48:04.850Z,100141.56
2022-10-07T02:49:09.803Z,100010.94
2022-10-07T02:50:19.174Z,100143.47
2022-10-07T02:51:23.865Z,100126.81
2022-10-07T02:52:31.641Z,100168.31
2022-10-07T02:53:36.496Z,100025.34
2022-10-07T02:54:54.477Z,100144.91
2022-10-07T02:55:58.260Z,100166.22
2022-10-07T02:57:01.402Z,100019.50
2022-10-07T02:58:08.758Z,100041.97
2022-10-07T02:59:14.376Z,100125.06
2022-10-07T03:00:18.986Z,100159.03
2022-10-07T03:01:30.804Z,100134.28
2022-10-07T03:02:44.800Z,100169.97
2022-10-07T03:03:46.738Z,100125.88
2022-10-07T03:04:48.847Z,100118.25
2022-10-07T03:05:51.309Z,100066.09
2022-10-07T03:06:54.423Z,100144.03
2022-10-07T03:08:00.570Z,100175.31
2022-10-07T03:09:03.210Z,100161.09
2022-10-07T03:10:09.086Z,100166.09
2022-10-07T03:11:12.257Z,100149.44
2022-10-07T03:12:14.015Z,100139.44
2022-10-07T03:13:15.795Z,100044.34
2022-10-07T03:14:24.854Z,100144.44
2022-10-07T03:15:27.551Z,100160.06
2022-10-07T03:16:31.286Z,100141.44
2022-10-07T03:17:33.056Z,100126.66
2022-10-07T03:18:34.805Z,100134.78
2022-10-07T03:19:44.017Z,100053.69
2022-10-07T03:20:46.197Z,100144.84
2022-10-07T03:21:48.077Z,100161.09
2022-10-07T03:22:50.397Z,100055.19
2022-10-07T03:23:55.639Z,100105.66
2022-10-07T03:25:01.386Z,100032.84
2022-10-07T03:26:03.129Z,100131.06
2022-10-07T03:27:07.794Z,100181.56
2022-10-07T03:28:10.682Z,100144.03
2022-10-07T03:29:13.891Z,100145.88
2022-10-07T03:30:16.100Z,100153.00
2022-10-07T03:31:17.925Z,100160.22
2022-10-07T03:32:27.372Z,100184.28
2022-10-07T03:33:29.304Z,100175.09
2022-10-07T03:34:32.183Z,100179.38
2022-10-07T03:35:34.846Z,100170.88
2022-10-07T03:36:37.027Z,100176.34
2022-10-07T03:37:42.006Z,100123.59
2022-10-07T03:38:45.010Z,100155.63
2022-10-07T03:39:49.218Z,100172.13
2022-10-07T03:40:52.243Z,100145.69
2022-10-07T03:41:54.204Z,100155.22
2022-10-07T03:42:55.952Z,100136.44
2022-10-07T03:43:59.349Z,100173.34
2022-10-07T03:45:02.400Z,100142.06
2022-10-07T03:46:04.311Z,100155.78
2022-10-07T03:47:10.732Z,100199.19
2022-10-07T03:48:13.105Z,100172.88
2022-10-07T03:49:15.335Z,100162.00
2022-10-07T03:50:17.168Z,100158.94
2022-10-07T03:51:19.078Z,100158.50
2022-10-07T03:52:20.891Z,100152.88
2022-10-07T03:53:22.970Z,100131.22
2022-10-07T03:54:24.748Z,100044.69
2022-10-07T03:55:26.484Z,100178.91
2022-10-07T03:56:28.198Z,100138.09
2022-10-07T03:57:48.397Z,100175.38
2022-10-07T03:58:50.264Z,100169.81
2022-10-07T03:59:53.719Z,100181.34
2022-10-07T04:01:15.193Z,100156.66
2022-10-07T04:02:27.952Z,100154.41
2022-10-07T04:03:30.784Z,100134.78
2022-10-07T04:04:32.735Z,100147.47
2022-10-07T04:05:36.262Z,100143.50
2022-10-07T04:06:38.966Z,100180.63
2022-10-07T04:07:49.175Z,100118.47
2022-10-07T04:08:55.331Z,100131.06
2022-10-07T04:09:57.303Z,100127.31
2022-10-07T04:11:02.131Z,100159.38
2022-10-07T04:12:05.061Z,100128.34
2022-10-07T04:13:06.832Z,100026.03
2022-10-07T04:14:08.920Z,100109.97
2022-10-07T04:15:14.079Z,100034.28
2022-10-07T04:16:18.901Z,100054.50
2022-10-07T04:17:23.698Z,100141.22
2022-10-07T04:18:25.599Z,100038.66
2022-10-07T04:19:28.679Z,100126.16
2022-10-07T04:20:30.418Z,100170.38
2022-10-07T04:21:32.521Z,100156.19
2022-10-07T04:22:34.278Z,100194.94
2022-10-07T04:23:36.608Z,100192.22
2022-10-07T04:24:38.520Z,100084.41
2022-10-07T04:25:47.221Z,100085.00
2022-10-07T04:26:52.563Z,100166.34
2022-10-07T04:27:56.416Z,100202.00
2022-10-07T04:29:00.190Z,100153.00
2022-10-07T04:30:03.860Z,100178.03
2022-10-07T04:31:08.965Z,100202.22
2022-10-07T04:32:14.560Z,100159.47
2022-10-07T04:33:16.641Z,100153.44
2022-10-07T04:34:18.366Z,100175.09
2022-10-07T04:35:21.823Z,100054.19
2022-10-07T04:36:25.418Z,100178.03
2022-10-07T04:37:35.182Z,100168.03
2022-10-07T04:38:36.925Z,100184.25
2022-10-07T04:39:59.743Z,100173.41
2022-10-07T04:41:05.751Z,100202.63
2022-10-07T04:42:28.889Z,100172.16
2022-10-07T04:43:33.972Z,100131.31
2022-10-07T04:44:48.124Z,100175.78
2022-10-07T04:45:53.761Z,100173.03
2022-10-07T04:46:56.947Z,100194.06
2022-10-07T04:48:02.608Z,100204.91
2022-10-07T04:49:05.330Z,100180.88
2022-10-07T04:50:07.981Z,100196.28
2022-10-07T04:51:10.360Z,100115.31
2022-10-07T04:52:14.071Z,100163.56
2022-10-07T04:53:19.812Z,100018.72
2022-10-07T04:54:21.968Z,100134.69
2022-10-07T04:55:28.397Z,100176.06
2022-10-07T04:56:31.449Z,100069.81
2022-10-07T04:57:34.391Z,100212.72
2022-10-07T04:58:36.410Z,100191.03
2022-10-07T04:59:42.648Z,100191.44
2022-10-07T05:00:49.261Z,100234.16
2022-10-07T05:01:52.362Z,100134.06
2022-10-07T05:02:54.231Z,100237.88
2022-10-07T05:03:58.194Z,100158.38
2022-10-07T05:05:01.091Z,100183.22
2022-10-07T05:06:05.760Z,100238.91
2022-10-07T05:07:10.555Z,100113.88
2022-10-07T05:08:14.534Z,100194.22
2022-10-07T05:09:16.569Z,100244.13
2022-10-07T05:10:21.839Z,100113.50
2022-10-07T05:11:23.898Z,100114.34
2022-10-07T05:12:32.011Z,100124.03
2022-10-07T05:13:34.502Z,100204.53
2022-10-07T05:14:37.108Z,100219.16
2022-10-07T05:15:57.887Z,100154.06
2022-10-07T05:17:00.032Z,100204.22
2022-10-07T05:18:07.212Z,100202.56
2022-10-07T05:19:10.604Z,100172.53
2022-10-07T05:20:13.609Z,100198.81
2022-10-07T05:21:15.443Z,100197.16
2022-10-07T05:22:20.281Z,100197.63
2022-10-07T05:23:28.074Z,100236.22
2022-10-07T05:24:33.123Z,100155.94
2022-10-07T05:25:36.201Z,100162.22
2022-10-07T05:26:38.077Z,100183.06
2022-10-07T05:27:42.476Z,100236.75
2022-10-07T05:28:45.755Z,100185.41
2022-10-07T05:29:50.698Z,100244.06
2022-10-07T05:31:01.628Z,100195.25
2022-10-07T05:32:05.229Z,100242.84
2022-10-07T05:33:10.033Z,100221.56
2022-10-07T05:34:13.734Z,100150.63
2022-10-07T05:35:15.676Z,100277.00
2022-10-07T05:36:17.924Z,100264.13
2022-10-07T05:37:19.737Z,100223.66
2022-10-07T05:38:22.440Z,100243.47
2022-10-07T05:39:24.179Z,100243.06
2022-10-07T05:40:38.959Z,100250.19
2022-10-07T05:41:45.618Z,100249.16
2022-10-07T05:42:51.009Z,100249.56
2022-10-07T05:43:52.945Z,100204.16
2022-10-07T05:44:54.754Z,100246.88
2022-10-07T05:46:05.376Z,100278.63
2022-10-07T05:47:09.860Z,100234.66
2022-10-07T05:48:11.777Z,100139.31
2022-10-07T05:49:13.551Z,100149.16
2022-10-07T05:50:16.621Z,100181.69
2022-10-07T05:51:22.822Z,100228.00
2022-10-07T05:52:25.092Z,100247.22
2022-10-07T05:53:28.689Z,100269.53
2022-10-07T05:54:32.999Z,100250.75
2022-10-07T05:55:40.021Z,100237.88
2022-10-07T05:56:41.910Z,100211.78
2022-10-07T05:57:44.039Z,100210.31
2022-10-07T05:58:47.706Z,100205.59
2022-10-07T05:59:50.192Z,100226.63
2022-10-07T06:00:54.881Z,100268.09
2022-10-07T06:01:57.643Z,100257.25
2022-10-07T06:03:02.405Z,100238.94
2022-10-07T06:04:08.049Z,100245.63
2022-10-07T06:05:14.655Z,100180.16
2022-10-07T06:06:17.406Z,100244.75
2022-10-07T06:07:22.026Z,100252.28
2022-10-07T06:08:28.281Z,100281.25
2022-10-07T06:09:51.688Z,100203.88
2022-10-07T06:11:12.207Z,100266.84
2022-10-07T06:12:32.735Z,100271.06
2022-10-07T06:13:38.257Z,100254.13
2022-10-07T06:14:40.309Z,100237.91
2022-10-07T06:15:42.971Z,100251.44
2022-10-07T06:16:45.127Z,100266.84
2022-10-07T06:17:47.991Z,100169.94
2022-10-07T06:18:55.061Z,100286.25
2022-10-07T06:19:59.064Z,100130.09
2022-10-07T06:21:02.139Z,100260.16
2022-10-07T06:22:05.396Z,100276.03
2022-10-07T06:23:09.398Z,100253.50
2022-10-07T06:24:11.354Z,100276.63
2022-10-07T06:25:13.311Z,100263.09
2022-10-07T06:26:15.279Z,100152.59
2022-10-07T06:27:17.373Z,100269.31
2022-10-07T06:28:19.966Z,100263.09
2022-10-07T06:29:22.483Z,100232.88
2022-10-07T06:30:25.866Z,100260.16
2022-10-07T06:31:28.929Z,100278.50
2022-10-07T06:32:35.985Z,100280.81
2022-10-07T06:33:38.449Z,100258.47
2022-10-07T06:34:40.303Z,100252.06
2022-10-07T06:35:42.107Z,100274.53
2022-10-07T06:36:43.867Z,100272.66
2022-10-07T06:37:45.857Z,100293.47
2022-10-07T06:38:49.837Z,100313.53
2022-10-07T06:39:58.681Z,100238.47
2022-10-07T06:41:04.493Z,100189.25
2022-10-07T06:42:08.286Z,100180.88
2022-10-07T06:43:12.860Z,100209.25
2022-10-07T06:44:20.164Z,100304.56
2022-10-07T06:45:22.006Z,100289.72
2022-10-07T06:46:25.864Z,100237.63
2022-10-07T06:47:27.902Z,100283.06
2022-10-07T06:48:32.990Z,100225.91
2022-10-07T06:49:34.912Z,100258.03
2022-10-07T06:50:36.727Z,100286.00
2022-10-07T06:51:38.722Z,100281.63
2022-10-07T06:52:43.433Z,100273.69
2022-10-07T06:53:46.331Z,100288.06
2022-10-07T06:54:48.251Z,100288.50
2022-10-07T06:56:00.156Z,100297.06
2022-10-07T06:57:20.385Z,100243.72
2022-10-07T06:58:27.071Z,100267.28
2022-10-07T06:59:30.109Z,100233.91
2022-10-07T07:00:39.807Z,100279.94
2022-10-07T07:01:41.883Z,100266.41
2022-10-07T07:02:44.683Z,100309.56
2022-10-07T07:03:46.932Z,100281.41
2022-10-07T07:04:51.948Z,100319.56
2022-10-07T07:05:56.539Z,100287.84
2022-10-07T07:07:03.491Z,100265.59
2022-10-07T07:08:05.830Z,100273.72
2022-10-07T07:09:07.689Z,100276.44
2022-10-07T07:10:12.536Z,100260.59
2022-10-07T07:11:37.014Z,100234.72
2022-10-07T07:12:47.843Z,100220.59
2022-10-07T07:13:50.012Z,100234.13
2022-10-07T07:14:52.536Z,100273.53
2022-10-07T07:15:57.632Z,100246.25
2022-10-07T07:17:00.773Z,100123.88
2022-10-07T07:18:04.332Z,100283.53
2022-10-07T07:19:08.863Z,100284.56
2022-10-07T07:20:11.783Z,100261.88
2022-10-07T07:21:13.755Z,100232.25
2022-10-07T07:22:15.478Z,100138.06
2022-10-07T07:23:18.217Z,100158.00
2022-10-07T07:24:20.264Z,100164.94
2022-10-07T07:25:22.850Z,100112.44
2022-10-07T07:26:25.478Z,100268.34
2022-10-07T07:27:27.514Z,100248.75
2022-10-07T07:28:31.607Z,100235.63
2022-10-07T07:29:33.684Z,100232.31
2022-10-07T07:30:39.168Z,100241.47
2022-10-07T07:31:41.332Z,100142.88
2022-10-07T07:32:43.985Z,100108.72
2022-10-07T07:33:52.278Z,100148.50
2022-10-07T07:34:55.892Z,100209.41
2022-10-07T07:35:57.842Z,100238.34
2022-10-07T07:36:59.725Z,100213.56
2022-10-07T07:38:08.608Z,100213.13
2022-10-07T07:39:13.652Z,100244.78
2022-10-07T07:40:17.735Z,100255.44
2022-10-07T07:41:22.210Z,100114.56
2022-10-07T07:42:24.611Z,100171.84
2022-10-07T07:43:26.353Z,100263.56
2022-10-07T07:44:34.002Z,100127.06
2022-10-07T07:45:38.229Z,100240.22
2022-10-07T07:46:47.750Z,100253.59
2022-10-07T07:47:50.279Z,100237.34
2022-10-07T07:48:54.237Z,100236.91
2022-10-07T07:49:55.949Z,100176.28
2022-10-07T07:51:06.731Z,100252.13
2022-10-07T07:52:09.791Z,100223.16
2022-10-07T07:53:16.392Z,100105.47
2022-10-07T07:54:19.096Z,100214.22
2022-10-07T07:55:23.761Z,100233.41
2022-10-07T07:56:26.344Z,100195.28
2022-10-07T07:57:29.877Z,100222.81
2022-10-07T07:58:35.905Z,100101.94
2022-10-07T07:59:37.762Z,100227.97
2022-10-07T08:00:40.856Z,100078.22
2022-10-07T08:01:45.420Z,100174.06
2022-10-07T08:02:48.765Z,100204.25
2022-10-07T08:03:53.547Z,100216.97
2022-10-07T08:04:55.344Z,100191.56
2022-10-07T08:06:02.166Z,100151.53
2022-10-07T08:07:05.336Z,100180.09
2022-10-07T08:08:07.326Z,100149.09
2022-10-07T08:09:09.530Z,100169.06
2022-10-07T08:10:12.743Z,100198.22
2022-10-07T08:11:17.447Z,100209.03
2022-10-07T08:12:22.273Z,100164.91
2022-10-07T08:13:26.381Z,100184.91
2022-10-07T08:14:28.225Z,100188.22
2022-10-07T08:15:30.358Z,100087.00
2022-10-07T08:16:32.666Z,100125.72
2022-10-07T08:17:35.363Z,100166.16
2022-10-07T08:18:39.074Z,100136.63
2022-10-07T08:19:40.931Z,100160.34
2022-10-07T08:20:43.744Z,100117.00
2022-10-07T08:21:45.546Z,100047.88
2022-10-07T08:22:55.665Z,100060.19
2022-10-07T08:24:04.004Z,100153.88
2022-10-07T08:25:08.905Z,100162.84
2022-10-07T08:26:10.931Z,100145.38
2022-10-07T08:27:13.385Z,100123.94
2022-10-07T08:28:15.903Z,100068.31
2022-10-07T08:29:19.528Z,100180.34
2022-10-07T08:30:21.332Z,100167.66
2022-10-07T08:31:28.345Z,100125.81
2022-10-07T08:32:31.152Z,100038.16
2022-10-07T08:33:35.954Z,100166.81
2022-10-07T08:34:37.750Z,100144.13
2022-10-07T08:35:40.059Z,100122.88
2022-10-07T08:36:47.282Z,100126.03
2022-10-07T08:37:49.413Z,100143.09
2022-10-07T08:38:52.036Z,100048.56
2022-10-07T08:39:53.743Z,100122.91
2022-10-07T08:40:55.693Z,100052.69
2022-10-07T08:42:08.620Z,100020.50
2022-10-07T08:43:10.451Z,100085.88
2022-10-07T08:44:16.396Z,100153.50
2022-10-07T08:45:29.547Z,100123.72
2022-10-07T08:46:35.519Z,100136.22
2022-10-07T08:47:44.219Z,100161.22
2022-10-07T08:48:53.948Z,100155.81
2022-10-07T08:50:18.073Z,100114.16
2022-10-07T08:51:30.877Z,100038.63
2022-10-07T08:52:41.649Z,100150.00
2022-10-07T08:53:44.668Z,100088.34
2022-10-07T08:54:46.691Z,100028.00
2022-10-07T08:56:01.515Z,100110.00
2022-10-07T08:57:16.217Z,100081.09
2022-10-07T08:58:43.511Z,100143.34
2022-10-07T08:59:50.458Z,100111.44
2022-10-07T09:01:01.401Z,100150.00
2022-10-07T09:02:21.506Z,100148.13
2022-10-07T09:03:52.386Z,100137.50
2022-10-07T09:04:58.247Z,100003.03
2022-10-07T09:06:08.599Z,100021.78
2022-10-07T09:07:21.493Z,100101.69
2022-10-07T09:08:36.441Z,100119.34
2022-10-07T09:09:53.743Z,100138.97
2022-10-07T09:11:02.473Z,100112.69
2022-10-07T09:12:22.852Z,100101.69
2022-10-07T09:13:27.102Z,100024.25
2022-10-07T09:14:47.038Z,100071.94
2022-10-07T09:16:00.759Z,100127.28
2022-10-07T09:17:10.880Z,100110.44
2022-10-07T09:18:31.968Z,100119.81
2022-10-07T09:19:39.543Z,100095.84
2022-10-07T09:20:45.781Z,100128.56
2022-10-07T09:21:51.565Z,100074.22
2022-10-07T09:22:57.438Z,100089.41
2022-10-07T09:24:24.828Z,100097.53
2022-10-07T09:25:29.673Z,100089.59
2022-10-07T09:26:31.370Z,99994.91
2022-10-07T09:27:33.591Z,99980.19
2022-10-07T09:28:37.136Z,100119.81
2022-10-07T09:29:39.108Z,100074.84
2022-10-07T09:30:42.431Z,99977.25
2022-10-07T09:31:44.249Z,99983.28
2022-10-07T09:32:48.596Z,99964.38
2022-10-07T09:33:53.129Z,100031.16
2022-10-07T09:34:55.033Z,100040.94
2022-10-07T09:36:08.345Z,99967.28
2022-10-07T09:37:21.095Z,100101.69
2022-10-07T09:38:41.052Z,100097.34
2022-10-07T09:39:44.617Z,100102.75
2022-10-07T09:41:30.364Z,100053.00
2022-10-07T09:42:38.750Z,100108.38
2022-10-07T09:43:50.891Z,100071.94
2022-10-07T09:44:55.444Z,100100.84
2022-10-07T09:45:58.822Z,100101.09
2022-10-07T09:47:17.207Z,100092.97
2022-10-07T09:48:22.046Z,100087.56
2022-10-07T09:49:29.474Z,100085.91
2022-10-07T09:50:39.671Z,100048.00
2022-10-07T09:51:41.588Z,100065.69
2022-10-07T09:52:55.675Z,100075.66
2022-10-07T09:54:06.328Z,100080.47
2022-10-07T09:55:26.926Z,100073.59
2022-10-07T09:56:47.852Z,100052.56
2022-10-07T09:58:00.860Z,100053.00
2022-10-07T09:59:21.387Z,100067.78
2022-10-07T10:00:26.532Z,100062.78
2022-10-07T10:01:28.486Z,100039.47
2022-10-07T10:02:31.102Z,100014.28
2022-10-07T10:03:37.928Z,100048.44
2022-10-07T10:04:53.304Z,100054.47
2022-10-07T10:05:57.894Z,100002.84
2022-10-07T10:07:06.380Z,99976.47
2022-10-07T10:08:23.046Z,99969.81
2022-10-07T10:09:26.108Z,100043.22
2022-10-07T10:10:33.945Z,100021.34
2022-10-07T10:11:35.782Z,100013.03
2022-10-07T10:12:46.570Z,100023.63
2022-10-07T10:13:50.736Z,100044.47
2022-10-07T10:14:59.486Z,99960.47
2022-10-07T10:16:03.426Z,100008.88
2022-10-07T10:17:05.367Z,99930.28
2022-10-07T10:18:22.461Z,100032.59
2022-10-07T10:19:26.699Z,100018.44
2022-10-07T10:20:36.755Z,100026.38
2022-10-07T10:21:42.150Z,100023.66
2022-10-07T10:22:44.211Z,100026.38
2022-10-07T10:23:49.605Z,99899.09
2022-10-07T10:25:10.517Z,99946.09
2022-10-07T10:26:32.457Z,100028.03
2022-10-07T10:27:59.929Z,99979.53
2022-10-07T10:29:04.733Z,100025.50
2022-10-07T10:30:12.633Z,99984.94
2022-10-07T10:31:29.891Z,99969.97
2022-10-07T10:32:32.248Z,100004.91
2022-10-07T10:33:53.364Z,99977.88
2022-10-07T10:35:19.787Z,99960.78
2022-10-07T10:36:27.232Z,99966.00
2022-10-07T10:37:41.234Z,99998.03
2022-10-07T10:39:01.781Z,99987.63
2022-10-07T10:40:33.144Z,99977.44
2022-10-07T10:41:40.435Z,99984.06
2022-10-07T10:42:51.304Z,99992.63
2022-10-07T10:44:20.231Z,99994.06
2022-10-07T10:45:49.278Z,99985.09
2022-10-07T10:47:03.896Z,99995.50
2022-10-07T10:48:23.832Z,99997.81
2022-10-07T10:49:36.392Z,99973.69
2022-10-07T10:50:55.772Z,99915.88
2022-10-07T10:52:18.243Z,99941.03
2022-10-07T10:53:34.472Z,99978.88
2022-10-07T10:54:51.244Z,99937.69
2022-10-07T10:56:21.060Z,99982.41
2022-10-07T10:57:59.988Z,99913.19
2022-10-07T10:59:17.188Z,99961.59
2022-10-07T11:00:23.386Z,99907.34
2022-10-07T11:01:34.572Z,99965.34
2022-10-07T11:02:39.107Z,99955.78
2022-10-07T11:04:04.717Z,99954.72
2022-10-07T11:05:34.508Z,99953.44
2022-10-07T11:06:38.332Z,99926.44
2022-10-07T11:07:46.306Z,99894.25
2022-10-07T11:08:52.122Z,99808.66
2022-10-07T11:10:16.855Z,99943.47
2022-10-07T11:11:22.140Z,99938.28
2022-10-07T11:12:26.759Z,99940.34
2022-10-07T11:13:46.972Z,99906.91
2022-10-07T11:14:57.827Z,99941.81
2022-10-07T11:16:25.974Z,99901.88
2022-10-07T11:17:32.304Z,99918.75
2022-10-07T11:18:49.447Z,99927.22
2022-10-07T11:20:04.468Z,99858.03
2022-10-07T11:21:12.720Z,99897.31
2022-10-07T11:22:23.894Z,99841.66
2022-10-07T11:23:32.796Z,99897.06
2022-10-07T11:24:37.820Z,99792.66
2022-10-07T11:26:01.940Z,99846.84
2022-10-07T11:27:15.036Z,99801.78
2022-10-07T11:28:24.495Z,99859.69
2022-10-07T11:29:31.555Z,99893.94
2022-10-07T11:30:43.562Z,99881.91
2022-10-07T11:31:54.961Z,99791.97
2022-10-07T11:33:05.810Z,99876.84
2022-10-07T11:34:23.081Z,99878.53
2022-10-07T11:35:29.926Z,99845.28
2022-10-07T11:36:48.680Z,99851.50
2022-10-07T11:38:14.808Z,99888.47
2022-10-07T11:39:16.596Z,99812.50
2022-10-07T11:40:19.669Z,99852.38
2022-10-07T11:41:32.389Z,99880.19
2022-10-07T11:42:43.119Z,99874.75
2022-10-07T11:43:53.836Z,99834.47
2022-10-07T11:45:00.319Z,99829.50
2022-10-07T11:46:17.293Z,99864.56
2022-10-07T11:47:24.559Z,99801.66
2022-10-07T11:48:41.068Z,99821.16
2022-10-07T11:49:51.698Z,99825.91
2022-10-07T11:50:59.870Z,99857.28
2022-10-07T11:52:12.082Z,99827.97
2022-10-07T11:53:24.317Z,99807.41
2022-10-07T11:54:30.705Z,99799.53
2022-10-07T11:55:44.235Z,99800.75
2022-10-07T11:56:51.626Z,99811.38
2022-10-07T11:57:56.660Z,99780.84
2022-10-07T11:59:04.897Z,99809.06
2022-10-07T12:00:22.572Z,99849.16
2022-10-07T12:01:30.678Z,99842.69
2022-10-07T12:02:38.467Z,99849.78
2022-10-07T12:03:40.466Z,99847.25
2022-10-07T12:04:42.517Z,99820.72
2022-10-07T12:05:50.154Z,99848.53
2022-10-07T12:07:29.621Z,99839.75
2022-10-07T12:08:34.604Z,99829.53
2022-10-07T12:09:56.033Z,99827.44
2022-10-07T12:11:12.537Z,99834.53
2022-10-07T12:12:14.348Z,99773.31
2022-10-07T12:13:17.352Z,99830.81
2022-10-07T12:14:42.270Z,99756.94
2022-10-07T12:15:45.069Z,99695.72
2022-10-07T12:16:54.736Z,99791.56
2022-10-07T12:18:05.678Z,99813.75
2022-10-07T12:19:07.646Z,99823.53
2022-10-07T12:20:51.052Z,99808.91
2022-10-07T12:22:05.048Z,99811.81
2022-10-07T12:23:28.609Z,99804.97
2022-10-07T12:24:46.660Z,99805.34
2022-10-07T12:25:52.150Z,99764.94
2022-10-07T12:26:56.350Z,99776.56
2022-10-07T12:27:58.486Z,99800.22
2022-10-07T12:29:00.503Z,99728.84
2022-10-07T12:30:02.793Z,99688.22
2022-10-07T12:31:27.303Z,99727.78
2022-10-07T12:32:51.210Z,99784.75
2022-10-07T12:33:53.543Z,99783.09
2022-10-07T12:34:55.703Z,99719.81
2022-10-07T12:35:57.471Z,99620.53
2022-10-07T12:37:44.465Z,99771.66
2022-10-07T12:39:09.746Z,99764.91
2022-10-07T12:40:20.344Z,99745.47
2022-10-07T12:41:44.150Z,99767.69
2022-10-07T12:43:11.063Z,99720.78
2022-10-07T12:44:25.275Z,99716.59
2022-10-07T12:45:28.891Z,99726.34
2022-10-07T12:46:38.721Z,99749.84
2022-10-07T12:47:43.038Z,99726.56
2022-10-07T12:49:03.246Z,99676.75
2022-10-07T12:50:13.450Z,99660.53
2022-10-07T12:51:27.051Z,99708.25
2022-10-07T12:52:52.102Z,99694.50
2022-10-07T12:53:55.877Z,99643.50
2022-10-07T12:55:02.645Z,99718.13
2022-10-07T12:56:05.757Z,99701.97
2022-10-07T12:57:20.000Z,99676.28